createdAt,value
2022-09-20T00:00:02.451Z,1017.43
2022-09-20T00:05:03.144Z,1017.44
2022-09-20T00:10:02.823Z,1017.54
2022-09-20T00:15:02.499Z,1017.55
2022-09-20T00:20:02.346Z,1017.48
2022-09-20T00:25:02.253Z,1017.52
2022-09-20T00:30:04.421Z,1017.54
2022-09-20T00:35:02.819Z,1017.65
2022-09-20T00:40:02.867Z,1017.63
2022-09-20T00:45:02.456Z,1017.61
2022-09-20T00:50:02.252Z,1017.65
2022-09-20T00:55:04.425Z,1017.65
2022-09-20T01:00:02.517Z,1017.63
2022-09-20T01:05:02.237Z,1017.8
2022-09-20T01:10:02.998Z,1017.74
2022-09-20T01:15:02.483Z,1017.66
2022-09-20T01:20:03.031Z,1017.63
2022-09-20T01:25:02.652Z,1017.75
2022-09-20T01:30:02.468Z,1017.7
2022-09-20T01:35:03.320Z,1017.66
2022-09-20T01:40:02.933Z,1017.67
2022-09-20T01:45:02.640Z,1017.6
2022-09-20T01:50:02.270Z,1017.67
2022-09-20T01:55:04.500Z,1017.62
2022-09-20T02:00:02.597Z,1017.72
2022-09-20T02:05:02.611Z,1017.75
2022-09-20T02:10:03.396Z,1017.74
2022-09-20T02:15:03.095Z,1017.7
2022-09-20T02:20:02.917Z,1017.76
2022-09-20T02:25:02.547Z,1017.74
2022-09-20T02:30:02.612Z,1017.86
2022-09-20T02:35:03.379Z,1017.89
2022-09-20T02:40:03.167Z,1017.86
2022-09-20T02:45:02.790Z,1017.82
2022-09-20T02:50:03.384Z,1017.97
2022-09-20T02:55:04.113Z,1017.89
2022-09-20T03:00:02.829Z,1017.9
2022-09-20T03:05:03.419Z,1018
2022-09-20T03:10:03.064Z,1018.03
2022-09-20T03:15:02.719Z,1018.04
2022-09-20T03:20:03.437Z,1017.98
2022-09-20T03:25:03.064Z,1018.12
2022-09-20T03:30:02.660Z,1018.1
2022-09-20T03:35:03.269Z,1018.17
2022-09-20T03:40:03.224Z,1018.21
2022-09-20T03:45:02.632Z,1018.25
2022-09-20T03:50:03.252Z,1018.3
2022-09-20T03:55:03.986Z,1018.28
2022-09-20T04:00:02.729Z,1018.3
2022-09-20T04:05:02.493Z,1018.39
2022-09-20T04:10:03.199Z,1018.31
2022-09-20T04:15:02.803Z,1018.32
2022-09-20T04:20:02.582Z,1018.39
2022-09-20T04:25:03.415Z,1018.4
2022-09-20T04:30:02.764Z,1018.43
2022-09-20T04:35:02.359Z,1018.4
2022-09-20T04:40:03.573Z,1018.42
2022-09-20T04:45:02.863Z,1018.43
2022-09-20T04:50:03.453Z,1018.46
2022-09-20T04:55:04.126Z,1018.56
2022-09-20T05:00:02.803Z,1018.55
2022-09-20T05:05:02.469Z,1018.65
2022-09-20T05:10:03.298Z,1018.67
2022-09-20T05:15:02.998Z,1018.84
2022-09-20T05:20:02.660Z,1018.84
2022-09-20T05:25:03.327Z,1018.84
2022-09-20T05:30:05.611Z,1018.93
2022-09-20T05:35:02.659Z,1018.96
2022-09-20T05:40:03.468Z,1019.01
2022-09-20T05:45:03.271Z,1019.05
2022-09-20T05:50:02.605Z,1019.11
2022-09-20T05:55:03.709Z,1019.13
2022-09-20T06:00:02.903Z,1019.08
2022-09-20T06:05:02.538Z,1019.19
2022-09-20T06:10:02.259Z,1019.22
2022-09-20T06:15:03.150Z,1019.21
2022-09-20T06:20:02.891Z,1019.29
2022-09-20T06:25:02.525Z,1019.36
2022-09-20T06:30:02.240Z,1019.38
2022-09-20T06:35:02.833Z,1019.47
2022-09-20T06:40:02.970Z,1019.51
2022-09-20T06:45:02.681Z,1019.56
2022-09-20T06:50:02.285Z,1019.63
2022-09-20T06:55:04.575Z,1019.63
2022-09-20T07:00:02.665Z,1019.63
2022-09-20T07:05:02.319Z,1019.64
2022-09-20T07:10:02.987Z,1019.75
2022-09-20T07:15:02.695Z,1019.82
2022-09-20T07:20:02.745Z,1019.88
2022-09-20T07:25:03.436Z,1019.98
2022-09-20T07:30:03.189Z,1019.87
2022-09-20T07:35:02.778Z,1019.95
2022-09-20T07:40:03.690Z,1019.91
2022-09-20T07:45:03.504Z,1020.15
2022-09-20T07:50:02.764Z,1020.06
2022-09-20T07:55:04.765Z,1020.1
2022-09-20T08:00:02.838Z,1020.12
2022-09-20T08:05:02.777Z,1020.17
2022-09-20T08:10:03.446Z,1020.18
2022-09-20T08:15:03.180Z,1020.22
2022-09-20T08:20:02.859Z,1020.3
2022-09-20T08:25:02.584Z,1020.34
2022-09-20T08:30:03.262Z,1020.41
2022-09-20T08:35:02.858Z,1020.41
2022-09-20T08:40:02.872Z,1020.44
2022-09-20T08:45:03.285Z,1020.48
2022-09-20T08:50:12.324Z,1020.5
2022-09-20T08:55:07.981Z,1020.55
2022-09-20T09:00:02.995Z,1020.49
2022-09-20T09:05:02.629Z,1020.53
2022-09-20T09:10:03.355Z,1020.48
2022-09-20T09:15:03.243Z,1020.49
2022-09-20T09:20:02.993Z,1020.54
2022-09-20T09:25:02.655Z,1020.54
2022-09-20T09:30:03.374Z,1020.46
2022-09-20T09:35:02.855Z,1020.46
2022-09-20T09:40:02.683Z,1020.51
2022-09-20T09:45:03.348Z,1020.57
2022-09-20T09:50:10.285Z,1020.53
2022-09-20T09:55:06.701Z,1020.57
2022-09-20T10:00:18.871Z,1020.51
2022-09-20T10:05:02.982Z,1020.58
2022-09-20T10:10:02.657Z,1020.58
2022-09-20T10:15:03.309Z,1020.52
2022-09-20T10:20:03.394Z,1020.57
2022-09-20T10:25:02.861Z,1020.53
2022-09-20T10:30:02.317Z,1020.58
2022-09-20T10:35:03.199Z,1020.48
2022-09-20T10:40:03.031Z,1020.57
2022-09-20T10:45:02.625Z,1020.5
2022-09-20T10:50:03.246Z,1020.53
2022-09-20T10:55:04.258Z,1020.48
2022-09-20T11:00:02.620Z,1020.53
2022-09-20T11:05:03.297Z,1020.59
2022-09-20T11:10:03.047Z,1020.6
2022-09-20T11:15:02.794Z,1020.56
2022-09-20T11:20:08.293Z,1020.54
2022-09-20T11:25:03.062Z,1020.51
2022-09-20T11:30:02.783Z,1020.48
2022-09-20T11:35:03.393Z,1020.46
2022-09-20T11:40:03.338Z,1020.62
2022-09-20T11:45:02.543Z,1020.5
2022-09-20T11:50:02.217Z,1020.54
2022-09-20T11:55:03.979Z,1020.53
2022-09-20T12:00:02.483Z,1020.49
2022-09-20T12:05:03.572Z,1020.5
2022-09-20T12:10:03.375Z,1020.52
2022-09-20T12:15:02.978Z,1020.57
2022-09-20T12:20:02.626Z,1020.47
2022-09-20T12:25:03.247Z,1020.48
2022-09-20T12:30:03.104Z,1020.45
2022-09-20T12:35:02.555Z,1020.39
2022-09-20T12:40:03.404Z,1020.46
2022-09-20T12:45:03.017Z,1020.43
2022-09-20T12:50:02.640Z,1020.43
2022-09-20T12:55:11.489Z,1020.37
2022-09-20T13:00:03.385Z,1020.39
2022-09-20T13:05:03.061Z,1020.44
2022-09-20T13:10:02.836Z,1020.44
2022-09-20T13:15:03.496Z,1020.39
2022-09-20T13:20:03.159Z,1020.46
2022-09-20T13:25:02.837Z,1020.53
2022-09-20T13:30:03.507Z,1020.66
2022-09-20T13:35:03.147Z,1020.62
2022-09-20T13:40:03.021Z,1020.56
2022-09-20T13:45:03.577Z,1020.62
2022-09-20T13:50:03.252Z,1020.63
2022-09-20T13:55:03.796Z,1020.59
2022-09-20T14:00:03.712Z,1020.59
2022-09-20T14:05:03.140Z,1020.63
2022-09-20T14:10:03.134Z,1020.54
2022-09-20T14:15:02.719Z,1020.71
2022-09-20T14:20:03.444Z,1020.64
2022-09-20T14:25:03.224Z,1020.7
2022-09-20T14:30:02.896Z,1020.69
2022-09-20T14:35:02.604Z,1020.78
2022-09-20T14:40:03.729Z,1020.79
2022-09-20T14:45:03.145Z,1020.91
2022-09-20T14:50:02.915Z,1020.78
2022-09-20T14:55:04.737Z,1020.88
2022-09-20T15:00:03.125Z,1021
2022-09-20T15:05:02.777Z,1021.02
2022-09-20T15:10:02.508Z,1021.11
2022-09-20T15:15:03.329Z,1021.21
2022-09-20T15:20:02.865Z,1021.21
2022-09-20T15:25:02.660Z,1021.22
2022-09-20T15:30:03.472Z,1021.37
2022-09-20T15:35:03.137Z,1021.35
2022-09-20T15:40:03.165Z,1021.36
2022-09-20T15:50:03.009Z,1021.39
2022-09-20T15:55:03.901Z,1021.4
2022-09-20T16:00:02.545Z,1021.49
2022-09-20T16:05:03.174Z,1021.44
2022-09-20T16:10:02.974Z,1021.52
2022-09-20T16:15:02.554Z,1021.57
2022-09-20T16:20:02.544Z,1021.6
2022-09-20T16:25:02.491Z,1021.65
2022-09-20T16:30:03.173Z,1021.62
2022-09-20T16:35:02.845Z,1021.68
2022-09-20T16:40:02.639Z,1021.69
2022-09-20T16:45:03.158Z,1021.76
2022-09-20T16:50:02.721Z,1021.75
2022-09-20T16:55:04.835Z,1021.77
2022-09-20T17:00:03.209Z,1021.8
2022-09-20T17:05:02.837Z,1021.79
2022-09-20T17:10:02.985Z,1021.89
2022-09-20T17:15:02.414Z,1021.81
2022-09-20T17:20:02.928Z,1021.9
2022-09-20T17:25:02.547Z,1021.88
2022-09-20T17:30:03.217Z,1021.98
2022-09-20T17:35:03.379Z,1022.09
2022-09-20T17:40:03.262Z,1022.12
2022-09-20T17:45:02.568Z,1022.13
2022-09-20T17:50:03.460Z,1022.2
2022-09-20T17:55:04.459Z,1022.31
2022-09-20T18:00:03.058Z,1022.45
2022-09-20T18:05:02.397Z,1022.35
2022-09-20T18:10:03.246Z,1022.49
2022-09-20T18:15:02.839Z,1022.44
2022-09-20T18:20:02.776Z,1022.53
2022-09-20T18:25:03.389Z,1022.62
2022-09-20T18:30:03.300Z,1022.62
2022-09-20T18:35:03.042Z,1022.74
2022-09-20T18:40:02.689Z,1022.73
2022-09-20T18:45:03.314Z,1022.88
2022-09-20T18:50:02.889Z,1022.92
2022-09-20T18:55:03.540Z,1022.95
2022-09-20T19:00:04.600Z,1023.09
2022-09-20T19:05:02.941Z,1023.05
2022-09-20T19:10:02.545Z,1023.12
2022-09-20T19:15:03.409Z,1023.15
2022-09-20T19:20:03.094Z,1023.16
2022-09-20T19:25:02.731Z,1023.27
2022-09-20T19:30:02.668Z,1023.37
2022-09-20T19:35:03.225Z,1023.43
2022-09-20T19:40:02.967Z,1023.51
2022-09-20T19:45:03.258Z,1023.59
2022-09-20T19:50:02.831Z,1023.71
2022-09-20T19:55:04.097Z,1023.64
2022-09-20T20:00:05.154Z,1023.64
2022-09-20T20:05:03.129Z,1023.7
2022-09-20T20:10:02.764Z,1023.84
2022-09-20T20:15:02.426Z,1023.84
2022-09-20T20:20:02.967Z,1023.87
2022-09-20T20:25:02.850Z,1023.86
2022-09-20T20:30:03.493Z,1023.81
2022-09-20T20:35:03.162Z,1023.96
2022-09-20T20:40:03.086Z,1024
2022-09-20T20:45:02.607Z,1024.1
2022-09-20T20:50:03.181Z,1024.12
2022-09-20T20:55:03.799Z,1024.09
2022-09-20T21:00:03.445Z,1024.09
2022-09-20T21:05:03.059Z,1024.23
2022-09-20T21:10:03.016Z,1024.32
2022-09-20T21:15:02.681Z,1024.28
2022-09-20T21:20:02.516Z,1024.26
2022-09-20T21:25:03.134Z,1024.21
2022-09-20T21:30:02.997Z,1024.23
2022-09-20T21:35:02.580Z,1024.24
2022-09-20T21:40:03.508Z,1024.22
2022-09-20T21:45:02.971Z,1024.34
2022-09-20T21:50:02.700Z,1024.29
2022-09-20T21:55:04.183Z,1024.37
2022-09-20T22:00:02.673Z,1024.43
2022-09-20T22:05:02.289Z,1024.4
2022-09-20T22:10:03.437Z,1024.45
2022-09-20T22:15:02.957Z,1024.51
2022-09-20T22:20:03.016Z,1024.47
2022-09-20T22:25:02.835Z,1024.56
2022-09-20T22:30:05.508Z,1024.63
2022-09-20T22:35:03.217Z,1024.71
2022-09-20T22:40:03.056Z,1024.63
2022-09-20T22:45:03.456Z,1024.63
2022-09-20T22:50:03.077Z,1024.58
2022-09-20T22:55:04.143Z,1024.59
2022-09-20T23:00:02.711Z,1024.57
2022-09-20T23:05:03.337Z,1024.61
2022-09-20T23:10:02.978Z,1024.63
2022-09-20T23:15:02.708Z,1024.54
2022-09-20T23:20:03.313Z,1024.54
2022-09-20T23:25:02.972Z,1024.54
2022-09-20T23:30:02.634Z,1024.6
2022-09-20T23:35:03.290Z,1024.53
2022-09-20T23:40:03.032Z,1024.55
2022-09-20T23:45:02.889Z,1024.75
2022-09-20T23:50:02.488Z,1024.63
2022-09-20T23:55:04.376Z,1024.72
